sensor_id;sensor_type;location;lat;lon;timestamp;temperature;humidity
50606;DHT22;36557;53.572;10.170;2022-09-20T00:01:03;7.50;99.90
50606;DHT22;36557;53.572;10.170;2022-09-20T00:03:29;7.60;99.90
50606;DHT22;36557;53.572;10.170;2022-09-20T00:05:59;7.60;99.90
50606;DHT22;36557;53.572;10.170;2022-09-20T00:08:24;7.60;99.90
50606;DHT22;36557;53.572;10.170;2022-09-20T00:10:50;7.50;99.90
50606;DHT22;36557;53.572;10.170;2022-09-20T00:13:18;7.60;99.90
50606;DHT22;36557;53.572;10.170;2022-09-20T00:15:44;7.50;99.90
50606;DHT22;36557;53.572;10.170;2022-09-20T00:18:11;7.40;99.90
50606;DHT22;36557;53.572;10.170;2022-09-20T00:20:44;7.40;99.90
50606;DHT22;36557;53.572;10.170;2022-09-20T00:23:10;7.40;99.90
50606;DHT22;36557;53.572;10.170;2022-09-20T00:25:36;7.40;99.90
50606;DHT22;36557;53.572;10.170;2022-09-20T00:28:01;7.30;99.90
50606;DHT22;36557;53.572;10.170;2022-09-20T00:30:27;7.40;99.90
50606;DHT22;36557;53.572;10.170;2022-09-20T00:32:53;7.30;99.90
50606;DHT22;36557;53.572;10.170;2022-09-20T00:35:19;7.40;99.90
50606;DHT22;36557;53.572;10.170;2022-09-20T00:37:44;7.40;99.90
50606;DHT22;36557;53.572;10.170;2022-09-20T00:40:16;7.40;99.90
50606;DHT22;36557;53.572;10.170;2022-09-20T00:42:45;7.60;99.90
50606;DHT22;36557;53.572;10.170;2022-09-20T00:47:47;7.60;99.90
50606;DHT22;36557;53.572;10.170;2022-09-20T00:50:36;7.70;99.90
50606;DHT22;36557;53.572;10.170;2022-09-20T00:53:12;7.70;99.90
50606;DHT22;36557;53.572;10.170;2022-09-20T00:55:50;7.60;99.90
50606;DHT22;36557;53.572;10.170;2022-09-20T00:58:18;7.60;99.90
50606;DHT22;36557;53.572;10.170;2022-09-20T01:00:45;7.50;99.90
50606;DHT22;36557;53.572;10.170;2022-09-20T01:03:14;7.50;99.90
50606;DHT22;36557;53.572;10.170;2022-09-20T01:05:41;7.50;99.90
50606;DHT22;36557;53.572;10.170;2022-09-20T01:08:09;7.50;99.90
50606;DHT22;36557;53.572;10.170;2022-09-20T01:10:35;7.40;99.90
50606;DHT22;36557;53.572;10.170;2022-09-20T01:13:01;7.40;99.90
50606;DHT22;36557;53.572;10.170;2022-09-20T01:15:28;7.30;99.90
50606;DHT22;36557;53.572;10.170;2022-09-20T01:17:57;7.30;99.90
50606;DHT22;36557;53.572;10.170;2022-09-20T01:20:35;7.20;99.90
50606;DHT22;36557;53.572;10.170;2022-09-20T01:23:30;7.30;99.90
50606;DHT22;36557;53.572;10.170;2022-09-20T01:28:48;7.30;99.90
50606;DHT22;36557;53.572;10.170;2022-09-20T01:31:25;7.20;99.90
50606;DHT22;36557;53.572;10.170;2022-09-20T01:34:06;7.10;99.90
50606;DHT22;36557;53.572;10.170;2022-09-20T01:37:04;7.10;99.90
50606;DHT22;36557;53.572;10.170;2022-09-20T01:42:15;7.30;99.90
50606;DHT22;36557;53.572;10.170;2022-09-20T01:45:00;7.20;99.90
50606;DHT22;36557;53.572;10.170;2022-09-20T01:50:24;7.10;99.90
50606;DHT22;36557;53.572;10.170;2022-09-20T02:01:43;7.00;99.90
50606;DHT22;36557;53.572;10.170;2022-09-20T02:12:43;6.90;99.90
50606;DHT22;36557;53.572;10.170;2022-09-20T02:17:47;6.70;99.90
50606;DHT22;36557;53.572;10.170;2022-09-20T02:20:31;6.90;99.90
50606;DHT22;36557;53.572;10.170;2022-09-20T02:23:11;6.80;99.90
50606;DHT22;36557;53.572;10.170;2022-09-20T02:42:54;6.70;99.90
50606;DHT22;36557;53.572;10.170;2022-09-20T02:48:23;6.80;99.90
50606;DHT22;36557;53.572;10.170;2022-09-20T02:51:07;6.80;99.90
50606;DHT22;36557;53.572;10.170;2022-09-20T02:59:13;6.50;99.90
50606;DHT22;36557;53.572;10.170;2022-09-20T03:02:03;6.50;99.90
50606;DHT22;36557;53.572;10.170;2022-09-20T03:04:54;6.70;99.90
50606;DHT22;36557;53.572;10.170;2022-09-20T03:07:45;6.50;99.90
50606;DHT22;36557;53.572;10.170;2022-09-20T03:21:27;6.60;99.90
50606;DHT22;36557;53.572;10.170;2022-09-20T03:26:57;6.60;99.90
50606;DHT22;36557;53.572;10.170;2022-09-20T03:46:25;6.50;99.90
50606;DHT22;36557;53.572;10.170;2022-09-20T03:57:49;6.30;99.90
50606;DHT22;36557;53.572;10.170;2022-09-20T04:03:27;6.20;99.90
50606;DHT22;36557;53.572;10.170;2022-09-20T04:16:51;6.40;99.90
50606;DHT22;36557;53.572;10.170;2022-09-20T04:19:30;6.30;99.90
50606;DHT22;36557;53.572;10.170;2022-09-20T04:21:58;6.30;99.90
50606;DHT22;36557;53.572;10.170;2022-09-20T04:24:59;6.30;99.90
50606;DHT22;36557;53.572;10.170;2022-09-20T04:32:38;6.20;99.90
50606;DHT22;36557;53.572;10.170;2022-09-20T04:38:24;6.10;99.90
50606;DHT22;36557;53.572;10.170;2022-09-20T04:54:18;5.70;99.90
50606;DHT22;36557;53.572;10.170;2022-09-20T05:00:06;5.60;99.90
50606;DHT22;36557;53.572;10.170;2022-09-20T05:08:56;5.60;99.90
50606;DHT22;36557;53.572;10.170;2022-09-20T05:11:43;5.70;99.90
50606;DHT22;36557;53.572;10.170;2022-09-20T05:20:17;5.50;99.90
50606;DHT22;36557;53.572;10.170;2022-09-20T05:22:59;5.60;99.90
50606;DHT22;36557;53.572;10.170;2022-09-20T05:28:11;5.50;99.90
50606;DHT22;36557;53.572;10.170;2022-09-20T05:37:16;5.50;99.90
50606;DHT22;36557;53.572;10.170;2022-09-20T05:39:30;5.80;99.90
50606;DHT22;36557;53.572;10.170;2022-09-20T05:44:53;5.90;99.90
50606;DHT22;36557;53.572;10.170;2022-09-20T05:47:38;5.90;99.90
50606;DHT22;36557;53.572;10.170;2022-09-20T05:52:58;6.00;99.90
50606;DHT22;36557;53.572;10.170;2022-09-20T06:01:00;6.80;99.90
50606;DHT22;36557;53.572;10.170;2022-09-20T06:03:38;6.90;99.90
50606;DHT22;36557;53.572;10.170;2022-09-20T06:06:27;6.90;99.90
50606;DHT22;36557;53.572;10.170;2022-09-20T06:09:05;7.10;99.90
50606;DHT22;36557;53.572;10.170;2022-09-20T06:19:38;7.40;99.90
50606;DHT22;36557;53.572;10.170;2022-09-20T06:22:30;7.50;99.90
50606;DHT22;36557;53.572;10.170;2022-09-20T06:27:42;7.70;99.90
50606;DHT22;36557;53.572;10.170;2022-09-20T06:30:23;7.80;99.90
50606;DHT22;36557;53.572;10.170;2022-09-20T06:33:00;7.90;99.90
50606;DHT22;36557;53.572;10.170;2022-09-20T06:35:42;8.00;99.90
50606;DHT22;36557;53.572;10.170;2022-09-20T06:38:43;8.10;99.90
50606;DHT22;36557;53.572;10.170;2022-09-20T06:41:31;8.20;99.90
50606;DHT22;36557;53.572;10.170;2022-09-20T06:43:59;8.30;99.90
50606;DHT22;36557;53.572;10.170;2022-09-20T06:46:27;8.40;99.90
50606;DHT22;36557;53.572;10.170;2022-09-20T06:48:53;8.50;99.90
50606;DHT22;36557;53.572;10.170;2022-09-20T06:51:20;8.70;99.90
50606;DHT22;36557;53.572;10.170;2022-09-20T06:53:47;8.80;99.90
50606;DHT22;36557;53.572;10.170;2022-09-20T06:56:18;8.90;99.90
50606;DHT22;36557;53.572;10.170;2022-09-20T06:58:45;8.90;99.90
50606;DHT22;36557;53.572;10.170;2022-09-20T07:01:11;8.90;99.90
50606;DHT22;36557;53.572;10.170;2022-09-20T07:03:38;9.00;99.90
50606;DHT22;36557;53.572;10.170;2022-09-20T07:06:04;9.00;99.90
50606;DHT22;36557;53.572;10.170;2022-09-20T07:08:30;9.10;99.90
50606;DHT22;36557;53.572;10.170;2022-09-20T07:10:56;9.30;99.90
50606;DHT22;36557;53.572;10.170;2022-09-20T07:13:22;9.40;99.90
50606;DHT22;36557;53.572;10.170;2022-09-20T07:15:48;9.50;99.90
50606;DHT22;36557;53.572;10.170;2022-09-20T07:18:15;9.50;99.90
50606;DHT22;36557;53.572;10.170;2022-09-20T07:20:40;9.60;99.90
50606;DHT22;36557;53.572;10.170;2022-09-20T07:23:06;9.80;99.90
50606;DHT22;36557;53.572;10.170;2022-09-20T07:25:32;9.90;99.90
50606;DHT22;36557;53.572;10.170;2022-09-20T07:27:58;10.10;99.90
50606;DHT22;36557;53.572;10.170;2022-09-20T07:30:24;10.10;99.90
50606;DHT22;36557;53.572;10.170;2022-09-20T07:32:50;10.30;99.90
50606;DHT22;36557;53.572;10.170;2022-09-20T07:35:16;10.30;99.90
50606;DHT22;36557;53.572;10.170;2022-09-20T07:37:41;10.40;99.90
50606;DHT22;36557;53.572;10.170;2022-09-20T07:40:08;10.40;99.90
50606;DHT22;36557;53.572;10.170;2022-09-20T07:42:35;10.60;99.90
50606;DHT22;36557;53.572;10.170;2022-09-20T07:45:01;10.80;99.90
50606;DHT22;36557;53.572;10.170;2022-09-20T07:47:31;10.80;99.90
50606;DHT22;36557;53.572;10.170;2022-09-20T07:50:00;11.40;99.90
50606;DHT22;36557;53.572;10.170;2022-09-20T07:52:25;11.20;99.90
50606;DHT22;36557;53.572;10.170;2022-09-20T07:54:51;11.40;99.90
50606;DHT22;36557;53.572;10.170;2022-09-20T07:57:18;11.40;99.90
50606;DHT22;36557;53.572;10.170;2022-09-20T07:59:43;11.30;99.90
50606;DHT22;36557;53.572;10.170;2022-09-20T08:02:13;11.20;99.90
50606;DHT22;36557;53.572;10.170;2022-09-20T08:04:39;11.30;99.90
50606;DHT22;36557;53.572;10.170;2022-09-20T08:07:05;11.40;99.90
50606;DHT22;36557;53.572;10.170;2022-09-20T08:09:30;11.60;99.90
50606;DHT22;36557;53.572;10.170;2022-09-20T08:11:56;11.70;99.90
50606;DHT22;36557;53.572;10.170;2022-09-20T08:14:22;11.50;99.90
50606;DHT22;36557;53.572;10.170;2022-09-20T08:16:49;11.70;99.90
50606;DHT22;36557;53.572;10.170;2022-09-20T08:19:19;12.00;99.90
50606;DHT22;36557;53.572;10.170;2022-09-20T08:21:46;11.90;99.90
50606;DHT22;36557;53.572;10.170;2022-09-20T08:24:12;12.00;99.90
50606;DHT22;36557;53.572;10.170;2022-09-20T08:26:38;12.60;99.90
50606;DHT22;36557;53.572;10.170;2022-09-20T08:29:04;12.50;99.90
50606;DHT22;36557;53.572;10.170;2022-09-20T08:31:32;12.40;99.90
50606;DHT22;36557;53.572;10.170;2022-09-20T08:34:02;12.50;99.90
50606;DHT22;36557;53.572;10.170;2022-09-20T08:36:30;12.50;99.90
50606;DHT22;36557;53.572;10.170;2022-09-20T08:38:56;12.40;99.90
50606;DHT22;36557;53.572;10.170;2022-09-20T08:41:26;12.70;99.90
50606;DHT22;36557;53.572;10.170;2022-09-20T08:46:47;12.80;99.90
50606;DHT22;36557;53.572;10.170;2022-09-20T08:49:23;12.60;99.90
50606;DHT22;36557;53.572;10.170;2022-09-20T08:51:50;12.40;99.90
50606;DHT22;36557;53.572;10.170;2022-09-20T08:54:16;12.60;99.90
50606;DHT22;36557;53.572;10.170;2022-09-20T08:56:42;12.80;99.90
50606;DHT22;36557;53.572;10.170;2022-09-20T08:59:17;12.70;99.90
50606;DHT22;36557;53.572;10.170;2022-09-20T09:01:45;13.00;99.90
50606;DHT22;36557;53.572;10.170;2022-09-20T09:04:17;12.90;99.90
50606;DHT22;36557;53.572;10.170;2022-09-20T09:06:43;12.90;99.90
50606;DHT22;36557;53.572;10.170;2022-09-20T09:09:21;13.10;99.90
50606;DHT22;36557;53.572;10.170;2022-09-20T09:11:51;13.50;99.90
50606;DHT22;36557;53.572;10.170;2022-09-20T09:14:30;13.40;99.90
50606;DHT22;36557;53.572;10.170;2022-09-20T09:17:18;13.70;99.90
50606;DHT22;36557;53.572;10.170;2022-09-20T09:19:55;13.60;99.90
50606;DHT22;36557;53.572;10.170;2022-09-20T09:22:29;13.90;99.90
50606;DHT22;36557;53.572;10.170;2022-09-20T09:28:03;13.70;99.90
50606;DHT22;36557;53.572;10.170;2022-09-20T09:30:42;13.60;99.90
50606;DHT22;36557;53.572;10.170;2022-09-20T09:33:27;13.30;99.90
50606;DHT22;36557;53.572;10.170;2022-09-20T09:36:14;13.30;99.90
50606;DHT22;36557;53.572;10.170;2022-09-20T09:38:43;13.70;99.90
50606;DHT22;36557;53.572;10.170;2022-09-20T09:41:23;14.10;99.90
50606;DHT22;36557;53.572;10.170;2022-09-20T09:46:45;14.40;99.90
50606;DHT22;36557;53.572;10.170;2022-09-20T09:49:25;14.80;99.90
50606;DHT22;36557;53.572;10.170;2022-09-20T09:52:10;15.20;99.90
50606;DHT22;36557;53.572;10.170;2022-09-20T09:54:46;14.70;99.90
50606;DHT22;36557;53.572;10.170;2022-09-20T10:05:34;15.10;99.90
50606;DHT22;36557;53.572;10.170;2022-09-20T10:19:41;14.80;99.90
50606;DHT22;36557;53.572;10.170;2022-09-20T10:22:10;14.90;99.90
50606;DHT22;36557;53.572;10.170;2022-09-20T10:25:10;14.70;99.90
50606;DHT22;36557;53.572;10.170;2022-09-20T10:41:06;14.40;99.90
50606;DHT22;36557;53.572;10.170;2022-09-20T10:46:52;14.70;99.90
50606;DHT22;36557;53.572;10.170;2022-09-20T10:49:40;14.90;99.90
50606;DHT22;36557;53.572;10.170;2022-09-20T10:52:32;14.90;99.90
50606;DHT22;36557;53.572;10.170;2022-09-20T10:57:55;15.70;99.90
50606;DHT22;36557;53.572;10.170;2022-09-20T11:00:42;16.40;99.90
50606;DHT22;36557;53.572;10.170;2022-09-20T11:08:35;15.70;99.90
50606;DHT22;36557;53.572;10.170;2022-09-20T11:11:16;15.70;99.90
50606;DHT22;36557;53.572;10.170;2022-09-20T11:19:30;16.40;99.90
50606;DHT22;36557;53.572;10.170;2022-09-20T11:22:11;16.20;99.90
50606;DHT22;36557;53.572;10.170;2022-09-20T11:24:49;16.60;99.90
50606;DHT22;36557;53.572;10.170;2022-09-20T11:27:25;17.10;99.90
50606;DHT22;36557;53.572;10.170;2022-09-20T11:30:05;17.10;99.90
50606;DHT22;36557;53.572;10.170;2022-09-20T11:32:44;15.90;99.40
50606;DHT22;36557;53.572;10.170;2022-09-20T11:37:44;14.60;99.90
50606;DHT22;36557;53.572;10.170;2022-09-20T11:40:31;14.80;99.90
50606;DHT22;36557;53.572;10.170;2022-09-20T11:43:01;15.10;99.50
50606;DHT22;36557;53.572;10.170;2022-09-20T11:45:30;15.20;98.80
50606;DHT22;36557;53.572;10.170;2022-09-20T11:48:09;15.80;99.90
50606;DHT22;36557;53.572;10.170;2022-09-20T11:56:30;15.90;99.30
50606;DHT22;36557;53.572;10.170;2022-09-20T11:59:05;16.00;98.00
50606;DHT22;36557;53.572;10.170;2022-09-20T12:01:39;16.40;98.90
50606;DHT22;36557;53.572;10.170;2022-09-20T12:06:39;16.50;98.40
50606;DHT22;36557;53.572;10.170;2022-09-20T12:09:26;17.50;98.30
50606;DHT22;36557;53.572;10.170;2022-09-20T12:11:53;17.50;99.50
50606;DHT22;36557;53.572;10.170;2022-09-20T12:14:24;17.30;99.90
50606;DHT22;36557;53.572;10.170;2022-09-20T12:16:50;17.30;99.10
50606;DHT22;36557;53.572;10.170;2022-09-20T12:26:57;18.10;99.90
50606;DHT22;36557;53.572;10.170;2022-09-20T12:31:54;17.60;97.70
50606;DHT22;36557;53.572;10.170;2022-09-20T12:39:27;16.90;95.70
50606;DHT22;36557;53.572;10.170;2022-09-20T12:42:02;17.00;98.50
50606;DHT22;36557;53.572;10.170;2022-09-20T12:44:39;16.30;97.40
50606;DHT22;36557;53.572;10.170;2022-09-20T13:06:20;16.40;95.60
50606;DHT22;36557;53.572;10.170;2022-09-20T13:14:17;18.00;97.90
50606;DHT22;36557;53.572;10.170;2022-09-20T13:19:31;18.20;95.80
50606;DHT22;36557;53.572;10.170;2022-09-20T13:22:01;17.60;96.60
50606;DHT22;36557;53.572;10.170;2022-09-20T13:24:40;18.30;99.90
50606;DHT22;36557;53.572;10.170;2022-09-20T13:27:20;18.50;96.80
50606;DHT22;36557;53.572;10.170;2022-09-20T13:29:46;19.40;95.60
50606;DHT22;36557;53.572;10.170;2022-09-20T13:32:30;18.90;93.10
50606;DHT22;36557;53.572;10.170;2022-09-20T13:35:19;18.30;95.10
50606;DHT22;36557;53.572;10.170;2022-09-20T13:37:52;18.80;95.10
50606;DHT22;36557;53.572;10.170;2022-09-20T13:40:20;18.10;94.20
50606;DHT22;36557;53.572;10.170;2022-09-20T13:42:48;17.40;95.40
50606;DHT22;36557;53.572;10.170;2022-09-20T13:45:16;17.60;96.10
50606;DHT22;36557;53.572;10.170;2022-09-20T13:47:47;17.00;95.00
50606;DHT22;36557;53.572;10.170;2022-09-20T13:52:55;16.50;96.80
50606;DHT22;36557;53.572;10.170;2022-09-20T13:55:28;16.70;96.00
50606;DHT22;36557;53.572;10.170;2022-09-20T13:57:56;16.90;95.80
50606;DHT22;36557;53.572;10.170;2022-09-20T14:00:24;17.10;94.90
50606;DHT22;36557;53.572;10.170;2022-09-20T14:02:52;17.00;93.50
50606;DHT22;36557;53.572;10.170;2022-09-20T14:05:22;17.50;94.60
50606;DHT22;36557;53.572;10.170;2022-09-20T14:07:49;17.70;94.70
50606;DHT22;36557;53.572;10.170;2022-09-20T14:10:44;18.20;94.50
50606;DHT22;36557;53.572;10.170;2022-09-20T14:13:14;18.10;95.70
50606;DHT22;36557;53.572;10.170;2022-09-20T14:15:45;17.20;94.10
50606;DHT22;36557;53.572;10.170;2022-09-20T14:18:15;17.30;95.30
50606;DHT22;36557;53.572;10.170;2022-09-20T14:20:43;17.20;94.30
50606;DHT22;36557;53.572;10.170;2022-09-20T14:23:24;17.00;94.90
50606;DHT22;36557;53.572;10.170;2022-09-20T14:28:40;16.50;95.80
50606;DHT22;36557;53.572;10.170;2022-09-20T14:31:27;16.30;95.20
50606;DHT22;36557;53.572;10.170;2022-09-20T14:33:57;16.30;94.90
50606;DHT22;36557;53.572;10.170;2022-09-20T14:36:26;16.20;95.70
50606;DHT22;36557;53.572;10.170;2022-09-20T14:38:58;16.10;95.90
50606;DHT22;36557;53.572;10.170;2022-09-20T14:41:38;16.20;96.00
50606;DHT22;36557;53.572;10.170;2022-09-20T14:44:14;16.60;97.10
50606;DHT22;36557;53.572;10.170;2022-09-20T14:46:41;16.40;97.40
50606;DHT22;36557;53.572;10.170;2022-09-20T14:51:51;16.40;95.40
50606;DHT22;36557;53.572;10.170;2022-09-20T14:54:28;16.20;96.10
50606;DHT22;36557;53.572;10.170;2022-09-20T14:56:56;16.00;95.30
50606;DHT22;36557;53.572;10.170;2022-09-20T14:59:36;16.00;96.70
50606;DHT22;36557;53.572;10.170;2022-09-20T15:02:07;16.00;95.40
50606;DHT22;36557;53.572;10.170;2022-09-20T15:04:35;16.10;95.00
50606;DHT22;36557;53.572;10.170;2022-09-20T15:07:07;15.90;94.50
50606;DHT22;36557;53.572;10.170;2022-09-20T15:09:34;15.90;94.90
50606;DHT22;36557;53.572;10.170;2022-09-20T15:12:33;16.00;94.90
50606;DHT22;36557;53.572;10.170;2022-09-20T15:14:53;16.00;96.10
50606;DHT22;36557;53.572;10.170;2022-09-20T15:17:20;16.00;95.00
50606;DHT22;36557;53.572;10.170;2022-09-20T15:19:47;15.90;95.40
50606;DHT22;36557;53.572;10.170;2022-09-20T15:22:14;15.90;94.30
50606;DHT22;36557;53.572;10.170;2022-09-20T15:24:40;15.80;94.70
50606;DHT22;36557;53.572;10.170;2022-09-20T15:27:06;15.70;95.50
50606;DHT22;36557;53.572;10.170;2022-09-20T15:29:32;15.80;95.20
50606;DHT22;36557;53.572;10.170;2022-09-20T15:31:58;15.70;94.30
50606;DHT22;36557;53.572;10.170;2022-09-20T15:34:24;15.60;95.80
50606;DHT22;36557;53.572;10.170;2022-09-20T15:36:50;15.40;96.90
50606;DHT22;36557;53.572;10.170;2022-09-20T15:39:15;15.30;96.90
50606;DHT22;36557;53.572;10.170;2022-09-20T15:41:41;15.30;95.60
50606;DHT22;36557;53.572;10.170;2022-09-20T15:44:09;15.40;95.30
50606;DHT22;36557;53.572;10.170;2022-09-20T15:46:35;15.40;95.50
50606;DHT22;36557;53.572;10.170;2022-09-20T15:49:02;15.40;94.60
50606;DHT22;36557;53.572;10.170;2022-09-20T15:51:29;15.50;96.80
50606;DHT22;36557;53.572;10.170;2022-09-20T15:53:57;15.40;96.60
50606;DHT22;36557;53.572;10.170;2022-09-20T15:56:29;15.50;98.60
50606;DHT22;36557;53.572;10.170;2022-09-20T15:58:57;15.50;95.90
50606;DHT22;36557;53.572;10.170;2022-09-20T16:01:44;15.40;98.20
50606;DHT22;36557;53.572;10.170;2022-09-20T16:04:14;15.40;95.70
50606;DHT22;36557;53.572;10.170;2022-09-20T16:06:42;15.40;96.40
50606;DHT22;36557;53.572;10.170;2022-09-20T16:09:08;15.30;96.90
50606;DHT22;36557;53.572;10.170;2022-09-20T16:11:35;15.30;97.60
50606;DHT22;36557;53.572;10.170;2022-09-20T16:14:01;15.20;97.10
50606;DHT22;36557;53.572;10.170;2022-09-20T16:16:29;15.20;97.30
50606;DHT22;36557;53.572;10.170;2022-09-20T16:18:55;15.10;97.30
50606;DHT22;36557;53.572;10.170;2022-09-20T16:21:40;15.00;97.30
50606;DHT22;36557;53.572;10.170;2022-09-20T16:24:07;15.00;96.60
50606;DHT22;36557;53.572;10.170;2022-09-20T16:26:34;15.00;96.40
50606;DHT22;36557;53.572;10.170;2022-09-20T16:29:00;14.90;97.10
50606;DHT22;36557;53.572;10.170;2022-09-20T16:31:36;14.80;97.40
50606;DHT22;36557;53.572;10.170;2022-09-20T16:36:48;14.80;97.20
50606;DHT22;36557;53.572;10.170;2022-09-20T16:39:16;14.70;97.40
50606;DHT22;36557;53.572;10.170;2022-09-20T16:41:44;14.60;97.70
50606;DHT22;36557;53.572;10.170;2022-09-20T16:44:12;14.60;97.20
50606;DHT22;36557;53.572;10.170;2022-09-20T16:46:38;14.40;98.50
50606;DHT22;36557;53.572;10.170;2022-09-20T16:49:05;14.40;98.70
50606;DHT22;36557;53.572;10.170;2022-09-20T16:51:34;14.20;99.90
50606;DHT22;36557;53.572;10.170;2022-09-20T16:54:03;14.10;99.90
50606;DHT22;36557;53.572;10.170;2022-09-20T16:56:33;14.00;99.90
50606;DHT22;36557;53.572;10.170;2022-09-20T16:59:00;13.80;99.90
50606;DHT22;36557;53.572;10.170;2022-09-20T17:01:27;13.70;99.90
50606;DHT22;36557;53.572;10.170;2022-09-20T17:03:53;13.60;99.90
50606;DHT22;36557;53.572;10.170;2022-09-20T17:06:19;13.50;99.90
50606;DHT22;36557;53.572;10.170;2022-09-20T17:08:45;13.40;99.90
50606;DHT22;36557;53.572;10.170;2022-09-20T17:11:15;13.40;99.90
50606;DHT22;36557;53.572;10.170;2022-09-20T17:13:42;13.40;99.90
50606;DHT22;36557;53.572;10.170;2022-09-20T17:16:22;13.30;99.90
50606;DHT22;36557;53.572;10.170;2022-09-20T17:18:53;13.30;99.90
50606;DHT22;36557;53.572;10.170;2022-09-20T17:21:19;13.20;99.90
50606;DHT22;36557;53.572;10.170;2022-09-20T17:23:48;13.00;99.90
50606;DHT22;36557;53.572;10.170;2022-09-20T17:26:17;13.00;99.90
50606;DHT22;36557;53.572;10.170;2022-09-20T17:28:45;12.80;99.90
50606;DHT22;36557;53.572;10.170;2022-09-20T17:31:14;12.80;99.90
50606;DHT22;36557;53.572;10.170;2022-09-20T17:33:40;12.70;99.90
50606;DHT22;36557;53.572;10.170;2022-09-20T17:36:07;12.70;99.90
50606;DHT22;36557;53.572;10.170;2022-09-20T17:38:35;12.70;99.90
50606;DHT22;36557;53.572;10.170;2022-09-20T17:41:03;12.60;99.90
50606;DHT22;36557;53.572;10.170;2022-09-20T17:43:33;12.50;99.90
50606;DHT22;36557;53.572;10.170;2022-09-20T17:46:12;12.40;99.90
50606;DHT22;36557;53.572;10.170;2022-09-20T17:48:39;12.30;99.90
50606;DHT22;36557;53.572;10.170;2022-09-20T17:51:07;12.20;99.90
50606;DHT22;36557;53.572;10.170;2022-09-20T17:53:34;12.10;99.90
50606;DHT22;36557;53.572;10.170;2022-09-20T17:56:01;12.10;99.90
50606;DHT22;36557;53.572;10.170;2022-09-20T17:58:27;12.00;99.90
50606;DHT22;36557;53.572;10.170;2022-09-20T18:00:53;11.90;99.90
50606;DHT22;36557;53.572;10.170;2022-09-20T18:03:21;11.90;99.90
50606;DHT22;36557;53.572;10.170;2022-09-20T18:05:49;11.80;99.90
50606;DHT22;36557;53.572;10.170;2022-09-20T18:08:15;11.80;99.90
50606;DHT22;36557;53.572;10.170;2022-09-20T18:10:41;11.80;99.90
50606;DHT22;36557;53.572;10.170;2022-09-20T18:13:07;11.70;99.90
50606;DHT22;36557;53.572;10.170;2022-09-20T18:15:32;11.60;99.90
50606;DHT22;36557;53.572;10.170;2022-09-20T18:17:58;11.50;99.90
50606;DHT22;36557;53.572;10.170;2022-09-20T18:20:24;11.40;99.90
50606;DHT22;36557;53.572;10.170;2022-09-20T18:22:51;11.40;99.90
50606;DHT22;36557;53.572;10.170;2022-09-20T18:25:17;11.30;99.90
50606;DHT22;36557;53.572;10.170;2022-09-20T18:27:42;11.30;99.90
50606;DHT22;36557;53.572;10.170;2022-09-20T18:30:08;11.20;99.90
50606;DHT22;36557;53.572;10.170;2022-09-20T18:32:34;11.10;99.90
50606;DHT22;36557;53.572;10.170;2022-09-20T18:35:00;11.10;99.90
50606;DHT22;36557;53.572;10.170;2022-09-20T18:37:27;11.00;99.90
50606;DHT22;36557;53.572;10.170;2022-09-20T18:39:52;11.00;99.90
50606;DHT22;36557;53.572;10.170;2022-09-20T18:42:18;10.90;99.90
50606;DHT22;36557;53.572;10.170;2022-09-20T18:44:44;10.80;99.90
50606;DHT22;36557;53.572;10.170;2022-09-20T18:47:10;10.90;99.90
50606;DHT22;36557;53.572;10.170;2022-09-20T18:49:36;10.80;99.90
50606;DHT22;36557;53.572;10.170;2022-09-20T18:52:02;10.80;99.90
50606;DHT22;36557;53.572;10.170;2022-09-20T18:54:28;10.80;99.90
50606;DHT22;36557;53.572;10.170;2022-09-20T18:56:58;10.80;99.90
50606;DHT22;36557;53.572;10.170;2022-09-20T18:59:25;10.70;99.90
50606;DHT22;36557;53.572;10.170;2022-09-20T19:01:58;10.60;99.90
50606;DHT22;36557;53.572;10.170;2022-09-20T19:15:38;10.40;99.90
50606;DHT22;36557;53.572;10.170;2022-09-20T19:26:46;10.30;99.90
50606;DHT22;36557;53.572;10.170;2022-09-20T19:29:24;10.30;99.90
50606;DHT22;36557;53.572;10.170;2022-09-20T19:31:55;10.30;99.90
50606;DHT22;36557;53.572;10.170;2022-09-20T19:34:26;10.20;99.90
50606;DHT22;36557;53.572;10.170;2022-09-20T19:48:16;10.00;99.90
50606;DHT22;36557;53.572;10.170;2022-09-20T19:50:48;10.00;99.90
50606;DHT22;36557;53.572;10.170;2022-09-20T19:53:16;9.90;99.90
50606;DHT22;36557;53.572;10.170;2022-09-20T19:55:46;9.90;99.90
50606;DHT22;36557;53.572;10.170;2022-09-20T19:58:13;9.80;99.90
50606;DHT22;36557;53.572;10.170;2022-09-20T20:00:41;9.70;99.90
50606;DHT22;36557;53.572;10.170;2022-09-20T20:03:12;9.70;99.90
50606;DHT22;36557;53.572;10.170;2022-09-20T20:05:50;9.60;99.90
50606;DHT22;36557;53.572;10.170;2022-09-20T20:08:40;9.60;99.90
50606;DHT22;36557;53.572;10.170;2022-09-20T20:14:20;9.50;99.90
50606;DHT22;36557;53.572;10.170;2022-09-20T20:24:55;9.30;99.90
50606;DHT22;36557;53.572;10.170;2022-09-20T20:27:22;9.30;99.90
50606;DHT22;36557;53.572;10.170;2022-09-20T20:29:49;9.30;99.90
50606;DHT22;36557;53.572;10.170;2022-09-20T20:32:15;9.30;99.90
50606;DHT22;36557;53.572;10.170;2022-09-20T20:34:41;9.30;99.90
50606;DHT22;36557;53.572;10.170;2022-09-20T20:37:07;9.30;99.90
50606;DHT22;36557;53.572;10.170;2022-09-20T20:39:33;9.20;99.90
50606;DHT22;36557;53.572;10.170;2022-09-20T20:42:00;9.20;99.90
50606;DHT22;36557;53.572;10.170;2022-09-20T20:44:30;9.20;99.90
50606;DHT22;36557;53.572;10.170;2022-09-20T20:46:58;9.10;99.90
50606;DHT22;36557;53.572;10.170;2022-09-20T20:49:23;9.10;99.90
50606;DHT22;36557;53.572;10.170;2022-09-20T20:51:49;9.10;99.90
50606;DHT22;36557;53.572;10.170;2022-09-20T20:54:15;9.10;99.90
50606;DHT22;36557;53.572;10.170;2022-09-20T20:56:41;9.00;99.90
50606;DHT22;36557;53.572;10.170;2022-09-20T20:59:06;9.00;99.90
50606;DHT22;36557;53.572;10.170;2022-09-20T21:01:35;8.90;99.90
50606;DHT22;36557;53.572;10.170;2022-09-20T21:04:02;8.90;99.90
50606;DHT22;36557;53.572;10.170;2022-09-20T21:06:32;8.90;99.90
50606;DHT22;36557;53.572;10.170;2022-09-20T21:08:59;8.90;99.90
50606;DHT22;36557;53.572;10.170;2022-09-20T21:11:27;8.80;99.90
50606;DHT22;36557;53.572;10.170;2022-09-20T21:13:54;8.80;99.90
50606;DHT22;36557;53.572;10.170;2022-09-20T21:16:29;8.80;99.90
50606;DHT22;36557;53.572;10.170;2022-09-20T21:18:56;8.80;99.90
50606;DHT22;36557;53.572;10.170;2022-09-20T21:21:24;8.80;99.90
50606;DHT22;36557;53.572;10.170;2022-09-20T21:23:55;8.80;99.90
50606;DHT22;36557;53.572;10.170;2022-09-20T21:26:22;8.70;99.90
50606;DHT22;36557;53.572;10.170;2022-09-20T21:28:50;8.70;99.90
50606;DHT22;36557;53.572;10.170;2022-09-20T21:31:18;8.70;99.90